createdAt,value
2022-09-21T00:02:20.749Z,0.90
2022-09-21T00:05:22.588Z,1.00
2022-09-21T00:08:25.190Z,1.10
2022-09-21T00:11:30.354Z,0.98
2022-09-21T00:14:32.115Z,1.00
2022-09-21T00:17:37.591Z,0.85
2022-09-21T00:20:43.526Z,0.95
2022-09-21T00:23:45.854Z,0.90
2022-09-21T00:26:47.509Z,1.10
2022-09-21T00:29:59.019Z,0.90
2022-09-21T00:33:00.703Z,1.00
2022-09-21T00:36:07.769Z,1.10
2022-09-21T00:39:09.919Z,0.80
2022-09-21T00:42:26.763Z,1.15
2022-09-21T00:45:28.493Z,1.00
2022-09-21T00:48:30.993Z,0.90
2022-09-21T00:51:32.673Z,1.10
2022-09-21T00:54:44.875Z,1.05
2022-09-21T00:57:49.666Z,0.95
2022-09-21T01:00:52.380Z,1.25
2022-09-21T01:03:56.826Z,0.90
2022-09-21T01:07:04.082Z,1.10
2022-09-21T01:10:10.282Z,1.00
2022-09-21T01:13:36.332Z,1.10
2022-09-21T01:16:38.780Z,0.88
2022-09-21T01:20:11.244Z,1.10
2022-09-21T01:23:28.108Z,1.10
2022-09-21T01:26:56.832Z,1.20
2022-09-21T01:30:07.879Z,1.10
2022-09-21T01:33:13.881Z,1.10
2022-09-21T01:36:20.855Z,1.23
2022-09-21T01:42:28.440Z,1.20
2022-09-21T01:45:38.360Z,1.05
2022-09-21T01:48:44.749Z,1.10
2022-09-21T01:51:52.014Z,1.00
2022-09-21T01:55:00.033Z,0.90
2022-09-21T01:58:12.146Z,1.00
2022-09-21T02:01:19.720Z,1.08
2022-09-21T02:04:21.605Z,1.05
2022-09-21T02:07:25.089Z,0.90
2022-09-21T02:10:33.422Z,1.05
2022-09-21T02:13:39.340Z,1.17
2022-09-21T02:17:00.754Z,1.03
2022-09-21T02:20:15.407Z,1.10
2022-09-21T02:23:45.932Z,0.80
2022-09-21T02:27:05.267Z,1.00
2022-09-21T02:30:20.360Z,1.00
2022-09-21T02:33:41.611Z,0.90
2022-09-21T02:37:02.187Z,1.00
2022-09-21T02:40:13.532Z,1.02
2022-09-21T02:43:27.766Z,1.00
2022-09-21T02:46:36.298Z,1.10
2022-09-21T02:49:42.557Z,1.10
2022-09-21T02:52:44.628Z,1.10
2022-09-21T02:55:55.709Z,1.00
2022-09-21T02:59:03.223Z,0.90
2022-09-21T03:02:06.978Z,1.00
2022-09-21T03:05:11.164Z,1.00
2022-09-21T03:08:12.758Z,1.00
2022-09-21T03:11:18.805Z,1.25
2022-09-21T03:14:20.466Z,0.90
2022-09-21T03:17:22.409Z,1.20
2022-09-21T03:20:24.011Z,1.08
2022-09-21T03:23:25.801Z,1.00
2022-09-21T03:26:27.684Z,1.05
2022-09-21T03:29:29.288Z,1.00
2022-09-21T03:32:30.886Z,1.00
2022-09-21T03:35:35.945Z,0.90
2022-09-21T03:38:38.204Z,1.02
2022-09-21T03:41:39.938Z,1.00
2022-09-21T03:44:41.588Z,0.95
2022-09-21T03:47:43.395Z,0.93
2022-09-21T03:50:45.621Z,0.90
2022-09-21T03:53:47.314Z,1.30
2022-09-21T03:56:48.983Z,0.95
2022-09-21T03:59:50.636Z,1.00
2022-09-21T04:02:55.670Z,1.13
2022-09-21T04:05:57.847Z,1.10
2022-09-21T04:09:02.544Z,1.13
2022-09-21T04:12:07.503Z,1.20
2022-09-21T04:15:14.478Z,1.10
2022-09-21T04:18:16.132Z,1.20
2022-09-21T04:21:18.772Z,1.30
2022-09-21T04:24:23.288Z,1.30
2022-09-21T04:27:25.071Z,1.20
2022-09-21T04:30:26.855Z,1.00
2022-09-21T04:33:28.523Z,0.90
2022-09-21T04:36:36.419Z,0.98
2022-09-21T04:39:40.957Z,0.90
2022-09-21T04:42:42.733Z,0.90
2022-09-21T04:45:53.024Z,1.13
2022-09-21T04:48:55.045Z,1.00
2022-09-21T04:51:59.377Z,1.00
2022-09-21T04:55:01.004Z,1.10
2022-09-21T04:58:02.706Z,0.80
2022-09-21T05:01:06.203Z,0.90
2022-09-21T05:04:07.999Z,1.00
2022-09-21T05:07:09.809Z,0.90
2022-09-21T05:10:11.976Z,1.05
2022-09-21T05:13:19.741Z,1.10
2022-09-21T05:16:25.157Z,1.00
2022-09-21T05:19:34.831Z,1.35
2022-09-21T05:22:36.662Z,1.20
2022-09-21T05:25:45.025Z,1.15
2022-09-21T05:28:47.176Z,1.02
2022-09-21T05:31:54.634Z,1.20
2022-09-21T05:35:21.073Z,1.00
2022-09-21T05:38:23.062Z,1.00
2022-09-21T05:41:25.049Z,0.90
2022-09-21T05:44:27.046Z,1.00
2022-09-21T05:47:51.680Z,0.90
2022-09-21T05:51:15.560Z,1.02
2022-09-21T05:54:31.386Z,1.10
2022-09-21T05:57:48.170Z,0.98
2022-09-21T06:01:15.350Z,1.35
2022-09-21T06:04:17.363Z,1.42
2022-09-21T06:07:19.148Z,1.50
2022-09-21T06:10:20.853Z,1.23
2022-09-21T06:13:22.551Z,1.30
2022-09-21T06:16:24.243Z,1.40
2022-09-21T06:19:26.010Z,1.60
2022-09-21T06:22:27.645Z,1.60
2022-09-21T06:25:29.299Z,1.35
2022-09-21T06:28:30.978Z,2.38
2022-09-21T06:31:33.077Z,1.75
2022-09-21T06:34:34.767Z,1.70
2022-09-21T06:37:38.418Z,2.13
2022-09-21T06:40:40.057Z,2.00
2022-09-21T06:43:41.764Z,1.60
2022-09-21T06:46:43.476Z,1.70
2022-09-21T06:49:45.165Z,1.48
2022-09-21T06:52:47.338Z,1.60
2022-09-21T06:55:48.980Z,1.63
2022-09-21T06:58:51.601Z,1.15
2022-09-21T07:01:55.760Z,1.40
2022-09-21T07:04:58.711Z,1.20
2022-09-21T07:08:00.603Z,1.50
2022-09-21T07:11:02.819Z,1.30
2022-09-21T07:14:05.412Z,1.60
2022-09-21T07:17:08.538Z,1.20
2022-09-21T07:20:10.211Z,1.30
2022-09-21T07:23:19.954Z,1.42
2022-09-21T07:26:22.681Z,1.83
2022-09-21T07:29:24.359Z,1.75
2022-09-21T07:32:26.429Z,1.50
2022-09-21T07:35:28.086Z,1.52
2022-09-21T07:38:29.840Z,1.48
2022-09-21T07:41:31.768Z,1.50
2022-09-21T07:44:34.269Z,1.40
2022-09-21T07:47:35.948Z,1.35
2022-09-21T07:50:38.596Z,1.50
2022-09-21T07:53:45.287Z,1.67
2022-09-21T07:57:06.998Z,1.90
2022-09-21T08:00:20.708Z,1.90
2022-09-21T08:03:35.042Z,1.85
2022-09-21T08:06:42.034Z,1.80
2022-09-21T08:32:51.143Z,1.10
2022-09-21T08:35:55.693Z,1.42
2022-09-21T08:38:57.294Z,1.60
2022-09-21T08:42:09.617Z,1.30
2022-09-21T08:45:16.923Z,1.17
2022-09-21T08:48:28.268Z,1.52
2022-09-21T08:51:36.567Z,1.30
2022-09-21T08:54:48.987Z,1.40
2022-09-21T08:57:50.654Z,1.33
2022-09-21T09:01:20.172Z,1.40
2022-09-21T09:04:50.557Z,1.40
2022-09-21T09:08:24.257Z,1.27
2022-09-21T09:11:28.840Z,1.48
2022-09-21T09:14:49.031Z,1.33
2022-09-21T09:17:56.524Z,1.10
2022-09-21T09:21:05.072Z,1.30
2022-09-21T09:24:41.768Z,1.40
2022-09-21T09:27:46.618Z,1.08
2022-09-21T09:30:57.312Z,1.08
2022-09-21T09:34:12.834Z,1.02
2022-09-21T09:37:16.860Z,1.10
2022-09-21T09:40:30.868Z,1.40
2022-09-21T09:44:10.303Z,0.90
2022-09-21T09:47:36.637Z,1.02
2022-09-21T09:50:40.772Z,1.08
2022-09-21T09:53:42.511Z,0.90
2022-09-21T09:56:44.195Z,0.95
2022-09-21T09:59:54.958Z,1.05
2022-09-21T10:02:58.732Z,1.00
2022-09-21T10:06:00.332Z,1.00
2022-09-21T10:09:19.583Z,1.00
2022-09-21T10:12:27.398Z,1.00
2022-09-21T10:15:29.777Z,0.90
2022-09-21T10:18:58.982Z,0.98
2022-09-21T10:22:03.988Z,0.75
2022-09-21T10:25:08.375Z,1.00
2022-09-21T10:28:13.497Z,0.98
2022-09-21T10:31:20.931Z,0.80
2022-09-21T10:34:23.951Z,0.90
2022-09-21T10:37:28.917Z,0.98
2022-09-21T10:40:37.499Z,1.00
2022-09-21T10:43:43.893Z,0.95
2022-09-21T10:46:47.652Z,0.98
2022-09-21T10:49:54.839Z,0.85
2022-09-21T10:53:30.184Z,1.02
2022-09-21T10:56:31.841Z,1.10
2022-09-21T10:59:37.057Z,0.93
2022-09-21T11:02:39.163Z,0.75
2022-09-21T11:05:49.337Z,0.85
2022-09-21T11:09:02.762Z,1.08
2022-09-21T11:12:30.141Z,0.90
2022-09-21T11:15:43.787Z,0.80
2022-09-21T11:19:01.275Z,1.33
2022-09-21T11:22:08.779Z,1.02
2022-09-21T11:25:23.429Z,1.00
2022-09-21T11:28:33.584Z,1.70
2022-09-21T11:31:41.313Z,0.85
2022-09-21T11:34:48.668Z,0.90
2022-09-21T11:38:13.514Z,0.95
2022-09-21T11:41:35.766Z,0.90
2022-09-21T11:44:53.174Z,0.90
2022-09-21T11:48:40.099Z,0.80
2022-09-21T11:52:45.724Z,1.00
2022-09-21T12:00:44.974Z,0.82
2022-09-21T12:04:46.801Z,0.82
2022-09-21T12:08:33.673Z,0.90
2022-09-21T12:12:44.277Z,0.93
2022-09-21T12:16:07.567Z,0.90
2022-09-21T12:19:24.523Z,1.80
2022-09-21T12:22:34.738Z,2.42
2022-09-21T12:25:42.883Z,1.40
2022-09-21T12:29:00.998Z,1.23
2022-09-21T12:32:28.876Z,1.13
2022-09-21T12:35:56.927Z,0.73
2022-09-21T12:39:18.307Z,1.15
2022-09-21T12:42:43.871Z,0.90
2022-09-21T12:45:56.884Z,0.80
2022-09-21T12:49:02.124Z,0.90
2022-09-21T12:52:06.823Z,0.80
2022-09-21T12:55:21.831Z,1.10
2022-09-21T12:58:51.246Z,0.80
2022-09-21T13:02:05.699Z,1.20
2022-09-21T13:05:26.908Z,1.00
2022-09-21T13:08:37.397Z,1.02
2022-09-21T13:11:57.532Z,0.90
2022-09-21T13:15:05.384Z,0.98
2022-09-21T13:18:18.332Z,0.80
2022-09-21T13:21:26.332Z,0.80
2022-09-21T13:24:30.677Z,0.93
2022-09-21T13:27:57.878Z,1.00
2022-09-21T13:31:09.908Z,1.10
2022-09-21T13:34:37.125Z,1.00
2022-09-21T13:37:39.749Z,1.00
2022-09-21T13:40:50.337Z,0.75
2022-09-21T13:44:01.062Z,0.80
2022-09-21T13:47:08.380Z,1.00
2022-09-21T13:50:31.459Z,0.90
2022-09-21T13:53:39.106Z,0.80
2022-09-21T13:56:42.987Z,0.77
2022-09-21T13:59:47.372Z,1.08
2022-09-21T14:02:49.139Z,1.10
2022-09-21T14:06:16.696Z,1.55
2022-09-21T14:12:45.494Z,0.80
2022-09-21T14:15:47.242Z,1.15
2022-09-21T14:18:48.957Z,0.85
2022-09-21T14:22:09.479Z,1.00
2022-09-21T14:25:52.318Z,0.90
2022-09-21T14:28:54.434Z,1.10
2022-09-21T14:32:01.314Z,0.93
2022-09-21T14:35:10.951Z,1.00
2022-09-21T14:38:59.594Z,1.00
2022-09-21T14:42:12.423Z,1.10
2022-09-21T14:45:18.486Z,0.90
2022-09-21T14:48:51.836Z,0.90
2022-09-21T14:52:20.158Z,1.10
2022-09-21T14:55:29.360Z,1.00
2022-09-21T14:58:45.185Z,1.10
2022-09-21T15:02:14.445Z,0.82
2022-09-21T15:05:27.741Z,1.10
2022-09-21T15:09:14.642Z,1.00
2022-09-21T15:12:54.323Z,1.00
2022-09-21T15:16:17.883Z,1.25
2022-09-21T15:19:28.112Z,1.30
2022-09-21T15:22:31.853Z,1.95
2022-09-21T15:25:33.967Z,0.95
2022-09-21T15:29:05.130Z,1.17
2022-09-21T15:32:01.939Z,1.00
2022-09-21T15:35:27.731Z,1.05
2022-09-21T15:38:34.399Z,1.00
2022-09-21T15:44:49.199Z,0.80
2022-09-21T15:47:51.922Z,0.88
2022-09-21T15:51:10.742Z,0.90
2022-09-21T15:54:25.118Z,0.88
2022-09-21T15:57:41.322Z,0.88
2022-09-21T16:00:54.932Z,1.03
2022-09-21T16:04:06.381Z,0.98
2022-09-21T16:07:24.646Z,0.93
2022-09-21T16:10:38.323Z,1.10
2022-09-21T16:13:59.436Z,1.00
2022-09-21T16:17:13.011Z,1.00
2022-09-21T16:20:23.487Z,1.02
2022-09-21T16:23:30.277Z,1.30
2022-09-21T16:26:36.370Z,1.02
2022-09-21T16:29:40.276Z,1.10
2022-09-21T16:32:42.240Z,0.90
2022-09-21T16:35:44.263Z,1.08
2022-09-21T16:38:56.059Z,1.50
2022-09-21T16:42:03.051Z,1.05
2022-09-21T16:45:11.518Z,1.10
2022-09-21T16:48:13.284Z,1.20
2022-09-21T16:51:22.337Z,0.90
2022-09-21T16:54:26.062Z,0.88
2022-09-21T16:57:32.713Z,0.93
2022-09-21T17:00:40.711Z,0.82
2022-09-21T17:03:42.845Z,1.40
2022-09-21T17:06:44.865Z,1.98
2022-09-21T17:09:47.853Z,1.73
2022-09-21T17:12:50.980Z,1.17
2022-09-21T17:15:53.364Z,1.00
2022-09-21T17:18:54.981Z,1.10
2022-09-21T17:21:56.813Z,0.98
2022-09-21T17:24:58.511Z,0.95
2022-09-21T17:28:01.902Z,1.13
2022-09-21T17:31:03.911Z,1.10
2022-09-21T17:34:10.504Z,1.25
2022-09-21T17:37:12.587Z,1.08
2022-09-21T17:40:14.865Z,1.40
2022-09-21T17:43:40.063Z,1.27
2022-09-21T17:46:53.464Z,1.45
2022-09-21T17:50:19.698Z,1.38
2022-09-21T17:53:41.004Z,1.20
2022-09-21T17:56:53.943Z,1.10
2022-09-21T19:37:25.700Z,1.10
2022-09-21T19:52:14.472Z,0.80
2022-09-21T19:59:48.570Z,1.10
2022-09-21T20:03:31.595Z,1.08
2022-09-21T20:06:44.117Z,1.27
2022-09-21T20:10:16.004Z,1.30
2022-09-21T20:13:22.861Z,1.30
2022-09-21T20:16:45.985Z,1.30
2022-09-21T20:20:14.454Z,1.30
2022-09-21T20:23:30.504Z,1.15
2022-09-21T20:26:32.558Z,1.20
2022-09-21T20:29:50.412Z,1.35
2022-09-21T20:33:05.364Z,1.25
2022-09-21T20:36:13.697Z,2.20
2022-09-21T20:39:24.356Z,3.20
2022-09-21T20:42:45.144Z,3.60
2022-09-21T20:45:50.982Z,2.78
2022-09-21T20:49:08.961Z,2.55
2022-09-21T20:52:16.684Z,2.28
2022-09-21T20:56:02.781Z,1.85
2022-09-21T20:59:12.262Z,1.45
2022-09-21T21:02:44.922Z,1.50
2022-09-21T21:06:11.457Z,1.23
2022-09-21T21:09:38.077Z,1.10
2022-09-21T21:12:43.054Z,1.10
2022-09-21T21:16:12.069Z,1.10
2022-09-21T21:19:26.776Z,1.10
2022-09-21T21:23:31.786Z,1.10
2022-09-21T21:26:57.353Z,1.00
2022-09-21T21:29:59.768Z,1.00
2022-09-21T21:33:01.858Z,1.10
2022-09-21T21:36:15.297Z,1.10
2022-09-21T21:39:19.401Z,1.13
2022-09-21T21:42:50.070Z,1.00
2022-09-21T21:45:53.163Z,1.00
2022-09-21T21:49:02.880Z,1.00
2022-09-21T21:52:25.201Z,1.10
2022-09-21T21:55:27.020Z,0.88
2022-09-21T21:58:28.886Z,0.93
2022-09-21T22:01:31.160Z,0.95
2022-09-21T22:04:32.986Z,1.00
2022-09-21T22:07:34.765Z,1.00
2022-09-21T22:10:36.549Z,1.00
2022-09-21T22:13:39.747Z,1.00
2022-09-21T22:16:41.651Z,0.90
2022-09-21T22:19:46.967Z,1.45
2022-09-21T22:23:16.703Z,0.85
2022-09-21T22:26:31.972Z,1.00
2022-09-21T22:30:01.098Z,0.93
2022-09-21T22:33:05.330Z,0.80
2022-09-21T22:37:03.314Z,1.00
2022-09-21T22:40:09.580Z,1.00
2022-09-21T22:43:26.070Z,1.08
2022-09-21T22:46:29.362Z,1.20
2022-09-21T22:50:28.770Z,0.93
2022-09-21T22:59:07.364Z,1.00
2022-09-21T23:19:19.561Z,1.10
